Windsor Mills, Ohio
Current Conditions -  °F | °C
As of 6:53 AM on Thursday 18 Dec 2014 (Local Time) from KHZY Reporting Station
Overcast Overcast  
Wind Chill: 22°   Ceiling: 1800
Heat Index: 30°   Visibility: 10mi
Dew Point: 24°   Wind: 8mph
Humidity: 79%   Direction: 280°W
Pressure: 30.16"   Gusts: NA
Location:  41.5537°N, 80.9667°W
Report Text: KHZY 181153Z AUTO 28007KT 10SM BKN018 OVC022 M01/M04 A3016 RMK AO2 SLP224 60000 70002 T10111044 11011 21017 53003
Loading
Personal Weather Stations






























Interactive Weather Map New forecast layout! Learn more

10-Day Weather Forecast

Advertisements
Track Severe Weather on mobile